Time;durP1;ratioP1;P1;durP2;ratioP2;P2;SDS_P1;SDS_P2;PMS_P1;PMS_P2;Temp;Humidity;BMP_temperature;BMP_pressure;BME280_temperature;BME280_humidity;BME280_pressure;Samples;Min_cycle;Max_cycle;Signal;HPM_P1;HPM_P2
2023/04/21 00:01:13;;;;;;;;;;;21.00;81.40;;;;;;5117640;28;19915;-50
2023/04/21 00:03:40;;;;;;;;;;;21.00;81.20;;;;;;5117901;28;19908;-53
2023/04/21 00:06:06;;;;;;;;;;;21.10;81.00;;;;;;5117776;28;20010;-54
2023/04/21 00:08:31;;;;;;;;;;;21.20;80.80;;;;;;5117559;28;20374;-52
2023/04/21 00:10:57;;;;;;;;;;;21.30;80.60;;;;;;5117516;28;19977;-53
2023/04/21 00:13:23;;;;;;;;;;;21.30;80.50;;;;;;5117631;28;20302;-52
2023/04/21 00:15:48;;;;;;;;;;;21.30;80.40;;;;;;5117714;28;19911;-50
2023/04/21 00:18:14;;;;;;;;;;;21.30;80.40;;;;;;5117672;28;19954;-52
2023/04/21 00:20:43;;;;;;;;;;;21.30;80.50;;;;;;5117551;28;19975;-53
2023/04/21 00:23:10;;;;;;;;;;;21.20;80.60;;;;;;5117169;27;19907;-52
2023/04/21 00:25:35;;;;;;;;;;;21.10;80.60;;;;;;5117164;28;19908;-52
2023/04/21 00:28:01;;;;;;;;;;;21.10;80.80;;;;;;5117432;27;19907;-53
2023/04/21 00:30:26;;;;;;;;;;;21.10;80.80;;;;;;5117332;28;20475;-52
2023/04/21 00:32:52;;;;;;;;;;;21.00;80.90;;;;;;5117194;28;19912;-55
2023/04/21 00:35:17;;;;;;;;;;;20.90;81.00;;;;;;5116969;28;19911;-54
2023/04/21 00:37:43;;;;;;;;;;;20.90;81.70;;;;;;5116976;28;19930;-51
2023/04/21 00:40:09;;;;;;;;;;;20.90;81.20;;;;;;5117063;28;19919;-53
2023/04/21 00:42:34;;;;;;;;;;;21.00;81.20;;;;;;5117065;27;20014;-51
2023/04/21 00:45:00;;;;;;;;;;;21.20;81.00;;;;;;5116869;28;20397;-53
2023/04/21 00:47:26;;;;;;;;;;;21.30;80.50;;;;;;5116743;28;19988;-52
2023/04/21 00:49:52;;;;;;;;;;;21.50;80.20;;;;;;5116741;28;19943;-50
2023/04/21 00:52:18;;;;;;;;;;;21.50;80.00;;;;;;5116932;28;19908;-50
2023/04/21 00:54:43;;;;;;;;;;;21.50;79.90;;;;;;5117229;28;19965;-52
2023/04/21 00:57:12;;;;;;;;;;;21.40;80.50;;;;;;5116891;28;19912;-50
2023/04/21 00:59:37;;;;;;;;;;;21.40;80.10;;;;;;5116850;28;19907;-51
2023/04/21 01:02:03;;;;;;;;;;;21.30;80.30;;;;;;5116774;28;19908;-51
2023/04/21 01:04:34;;;;;;;;;;;21.20;80.40;;;;;;5116792;28;19908;-51
2023/04/21 01:07:00;;;;;;;;;;;21.20;80.60;;;;;;5116743;28;19915;-52
2023/04/21 01:09:26;;;;;;;;;;;21.10;80.80;;;;;;5116637;28;19912;-51
2023/04/21 01:12:04;;;;;;;;;;;21.00;80.90;;;;;;5115981;27;19915;-53
2023/04/21 01:14:29;;;;;;;;;;;20.90;81.10;;;;;;5116192;28;19911;-50
2023/04/21 01:16:55;;;;;;;;;;;20.90;81.20;;;;;;5116416;28;19941;-52
2023/04/21 01:19:21;;;;;;;;;;;20.80;81.30;;;;;;5116304;28;20347;-52
2023/04/21 01:21:48;;;;;;;;;;;20.80;81.50;;;;;;5116393;28;19908;-52
2023/04/21 01:24:13;;;;;;;;;;;20.70;81.50;;;;;;5116267;28;19945;-54
2023/04/21 01:26:39;;;;;;;;;;;20.60;81.70;;;;;;5116645;28;20340;-54
2023/04/21 01:29:04;;;;;;;;;;;20.60;81.80;;;;;;5116193;28;19908;-55
2023/04/21 01:31:30;;;;;;;;;;;20.60;82.00;;;;;;5115874;28;19947;-53
2023/04/21 01:33:55;;;;;;;;;;;20.50;82.10;;;;;;5116115;28;20015;-52
2023/04/21 01:36:21;;;;;;;;;;;20.50;82.20;;;;;;5116229;28;20370;-51
2023/04/21 01:38:46;;;;;;;;;;;20.50;82.30;;;;;;5114846;28;20026;-53
2023/04/21 01:41:12;;;;;;;;;;;20.40;82.30;;;;;;5115737;28;19912;-54
2023/04/21 01:43:37;;;;;;;;;;;20.40;82.40;;;;;;5115621;28;20361;-55
2023/04/21 01:46:03;;;;;;;;;;;20.30;82.40;;;;;;5115905;28;19953;-54
2023/04/21 01:48:29;;;;;;;;;;;20.40;82.50;;;;;;5115528;28;20003;-50
2023/04/21 01:50:54;;;;;;;;;;;20.30;82.50;;;;;;5115831;28;19955;-53
2023/04/21 01:53:20;;;;;;;;;;;20.30;82.50;;;;;;5115703;28;19911;-52
2023/04/21 01:55:45;;;;;;;;;;;20.20;82.60;;;;;;5115506;28;19916;-54
2023/04/21 01:58:11;;;;;;;;;;;20.20;82.60;;;;;;5115707;28;19953;-50
2023/04/21 02:00:36;;;;;;;;;;;20.20;82.70;;;;;;5115650;28;19908;-51
2023/04/21 02:03:02;;;;;;;;;;;20.20;82.80;;;;;;5115555;28;19914;-53
2023/04/21 02:05:27;;;;;;;;;;;20.10;82.80;;;;;;5115271;28;19908;-51
2023/04/21 02:07:53;;;;;;;;;;;20.10;82.80;;;;;;5115433;28;19908;-50
2023/04/21 02:10:19;;;;;;;;;;;20.10;82.90;;;;;;5115387;28;20002;-51
2023/04/21 02:12:44;;;;;;;;;;;20.00;83.00;;;;;;5115256;28;19998;-53
2023/04/21 02:15:10;;;;;;;;;;;20.00;83.00;;;;;;5115363;28;20007;-52
2023/04/21 02:17:35;;;;;;;;;;;20.00;83.10;;;;;;5114038;28;20373;-49
2023/04/21 02:20:02;;;;;;;;;;;19.90;83.20;;;;;;5115158;28;19986;-53
2023/04/21 02:22:27;;;;;;;;;;;19.90;83.20;;;;;;5114644;28;19908;-50
2023/04/21 02:24:53;;;;;;;;;;;19.90;83.30;;;;;;5114891;28;19991;-53
2023/04/21 02:27:18;;;;;;;;;;;19.80;83.40;;;;;;5115126;28;19999;-52
2023/04/21 02:29:43;;;;;;;;;;;19.80;83.40;;;;;;5114823;28;19999;-52
2023/04/21 02:32:09;;;;;;;;;;;19.80;83.50;;;;;;5114811;28;19912;-53
2023/04/21 02:34:35;;;;;;;;;;;19.70;83.50;;;;;;5114716;28;19964;-53
2023/04/21 02:37:01;;;;;;;;;;;19.70;83.50;;;;;;5115025;28;19912;-52
2023/04/21 02:39:26;;;;;;;;;;;19.70;83.60;;;;;;5114672;28;19964;-53
2023/04/21 02:41:52;;;;;;;;;;;19.70;83.70;;;;;;5114863;28;19907;-52
2023/04/21 02:44:17;;;;;;;;;;;19.60;83.70;;;;;;5115050;28;19919;-51
2023/04/21 02:46:43;;;;;;;;;;;19.60;83.90;;;;;;5114587;28;20366;-55
2023/04/21 02:49:09;;;;;;;;;;;19.60;83.90;;;;;;5114762;28;19908;-51
2023/04/21 02:51:34;;;;;;;;;;;19.50;83.90;;;;;;5114487;28;19914;-52
2023/04/21 02:54:00;;;;;;;;;;;19.50;83.90;;;;;;5114695;28;20002;-54
2023/04/21 02:56:25;;;;;;;;;;;19.50;84.00;;;;;;5114718;28;19916;-52
2023/04/21 02:58:51;;;;;;;;;;;19.50;84.10;;;;;;5114711;28;19908;-51
2023/04/21 03:01:16;;;;;;;;;;;19.40;84.10;;;;;;5114629;28;19947;-52
2023/04/21 03:03:42;;;;;;;;;;;19.40;84.70;;;;;;5114617;28;19908;-51
2023/04/21 03:06:07;;;;;;;;;;;19.40;84.20;;;;;;5114630;28;19912;-54
2023/04/21 03:08:33;;;;;;;;;;;19.40;84.30;;;;;;5114528;28;19908;-52
2023/04/21 03:10:59;;;;;;;;;;;19.30;84.30;;;;;;5114481;28;20434;-52
2023/04/21 03:13:24;;;;;;;;;;;19.30;84.40;;;;;;5114488;28;20003;-50
2023/04/21 03:15:50;;;;;;;;;;;19.30;84.40;;;;;;5114473;28;20006;-52
2023/04/21 03:18:16;;;;;;;;;;;19.30;84.40;;;;;;5114141;28;20290;-53
2023/04/21 03:20:41;;;;;;;;;;;19.20;84.40;;;;;;5114160;28;19907;-49
2023/04/21 03:23:07;;;;;;;;;;;19.20;84.50;;;;;;5114155;28;20465;-54
2023/04/21 03:25:32;;;;;;;;;;;19.20;84.60;;;;;;5114354;28;20009;-49
2023/04/21 03:27:58;;;;;;;;;;;19.20;84.70;;;;;;5114355;28;19908;-53
2023/04/21 03:30:26;;;;;;;;;;;19.20;84.70;;;;;;5114379;28;19914;-52
2023/04/21 03:32:52;;;;;;;;;;;19.10;84.70;;;;;;5114206;28;19919;-52
2023/04/21 03:35:17;;;;;;;;;;;19.10;84.70;;;;;;5117153;28;19912;-53
2023/04/21 03:37:43;;;;;;;;;;;19.10;84.80;;;;;;5117971;28;19915;-52
2023/04/21 03:40:09;;;;;;;;;;;19.10;84.80;;;;;;5118314;28;20002;-51
2023/04/21 03:42:34;;;;;;;;;;;19.00;84.80;;;;;;5118284;28;19919;-51
2023/04/21 03:45:01;;;;;;;;;;;19.10;84.90;;;;;;5117954;28;20328;-51
2023/04/21 03:47:26;;;;;;;;;;;19.00;84.90;;;;;;5118172;27;19912;-52
2023/04/21 03:49:51;;;;;;;;;;;19.00;84.90;;;;;;5118093;28;19914;-51
2023/04/21 03:52:17;;;;;;;;;;;19.00;85.00;;;;;;5116769;28;19908;-51
2023/04/21 03:54:42;;;;;;;;;;;18.90;85.00;;;;;;5117912;28;19947;-51
2023/04/21 03:57:08;;;;;;;;;;;18.90;85.00;;;;;;5117614;28;20302;-53
2023/04/21 03:59:33;;;;;;;;;;;19.00;85.10;;;;;;5117945;28;19908;-53
2023/04/21 04:01:59;;;;;;;;;;;18.90;85.10;;;;;;5117610;28;20032;-49
2023/04/21 04:04:24;;;;;;;;;;;18.90;85.10;;;;;;5117748;28;19908;-52
2023/04/21 04:06:50;;;;;;;;;;;18.90;85.10;;;;;;5117429;28;19926;-49
2023/04/21 04:09:15;;;;;;;;;;;18.90;85.20;;;;;;5117479;28;20358;-50
2023/04/21 04:11:41;;;;;;;;;;;18.80;85.20;;;;;;5117730;28;20308;-52
2023/04/21 04:14:06;;;;;;;;;;;18.80;85.20;;;;;;5117530;28;19912;-53
2023/04/21 04:16:33;;;;;;;;;;;18.80;85.20;;;;;;5117247;28;19912;-49
2023/04/21 04:18:58;;;;;;;;;;;18.80;85.30;;;;;;5117415;28;19907;-51
2023/04/21 04:21:23;;;;;;;;;;;18.80;85.30;;;;;;5116096;28;19998;-49
2023/04/21 04:23:51;;;;;;;;;;;18.80;85.30;;;;;;5117092;28;19908;-49
2023/04/21 04:26:17;;;;;;;;;;;18.80;85.40;;;;;;5117621;28;20339;-53
2023/04/21 04:28:43;;;;;;;;;;;18.70;85.30;;;;;;5117288;28;19908;-53
2023/04/21 04:31:08;;;;;;;;;;;18.70;85.30;;;;;;5116841;28;20033;-53
2023/04/21 04:33:35;;;;;;;;;;;18.70;85.30;;;;;;5116959;28;20418;-52
2023/04/21 04:36:00;;;;;;;;;;;18.70;85.40;;;;;;5116968;28;19912;-49
2023/04/21 04:38:27;;;;;;;;;;;18.70;85.40;;;;;;5116990;28;20017;-54
2023/04/21 04:40:53;;;;;;;;;;;18.70;85.40;;;;;;5116939;28;19908;-51
2023/04/21 04:43:18;;;;;;;;;;;18.70;85.40;;;;;;5117008;28;19920;-53
2023/04/21 04:45:44;;;;;;;;;;;18.70;85.50;;;;;;5115640;27;20278;-54
2023/04/21 04:48:11;;;;;;;;;;;18.70;85.50;;;;;;5116016;28;20213;-52
2023/04/21 04:50:36;;;;;;;;;;;18.60;85.40;;;;;;5116581;28;19939;-54
2023/04/21 04:53:02;;;;;;;;;;;18.60;85.40;;;;;;5116747;28;19912;-52
2023/04/21 04:55:27;;;;;;;;;;;18.60;85.50;;;;;;5116673;28;19983;-50
2023/04/21 04:57:53;;;;;;;;;;;18.60;85.50;;;;;;5116081;28;19912;-54
2023/04/21 05:00:18;;;;;;;;;;;18.60;85.50;;;;;;5116138;28;20002;-52
2023/04/21 05:02:44;;;;;;;;;;;18.60;85.50;;;;;;5115923;28;20311;-54
2023/04/21 05:05:09;;;;;;;;;;;18.60;85.60;;;;;;5116067;28;19908;-49
2023/04/21 05:07:35;;;;;;;;;;;18.60;85.60;;;;;;5116426;28;19916;-54
2023/04/21 05:10:03;;;;;;;;;;;18.50;85.50;;;;;;5116371;28;19916;-51
2023/04/21 05:12:29;;;;;;;;;;;18.60;85.60;;;;;;5116271;28;19930;-51
2023/04/21 05:14:54;;;;;;;;;;;18.50;85.60;;;;;;5116130;28;19916;-50
2023/04/21 05:17:20;;;;;;;;;;;18.50;85.60;;;;;;5115830;28;19931;-54
2023/04/21 05:19:45;;;;;;;;;;;18.50;85.60;;;;;;5115831;27;19912;-53
2023/04/21 05:22:11;;;;;;;;;;;18.50;85.60;;;;;;5116049;28;19914;-51
2023/04/21 05:24:37;;;;;;;;;;;18.50;85.60;;;;;;5116128;28;19912;-50
2023/04/21 05:27:02;;;;;;;;;;;18.50;85.60;;;;;;5115443;28;19915;-54
2023/04/21 05:29:28;;;;;;;;;;;18.50;85.60;;;;;;5115873;28;19907;-49
2023/04/21 05:31:53;;;;;;;;;;;18.50;85.70;;;;;;5115863;28;19911;-51
2023/04/21 05:34:18;;;;;;;;;;;18.40;85.70;;;;;;5115545;28;20019;-54
2023/04/21 05:36:44;;;;;;;;;;;18.40;85.70;;;;;;5115188;28;19919;-52
2023/04/21 05:39:09;;;;;;;;;;;18.50;85.80;;;;;;5115464;28;19953;-54
2023/04/21 05:41:35;;;;;;;;;;;18.40;85.70;;;;;;5115265;28;19914;-52
2023/04/21 05:44:00;;;;;;;;;;;18.50;85.80;;;;;;5115603;28;20016;-54
2023/04/21 05:46:26;;;;;;;;;;;18.40;85.70;;;;;;5115246;28;19916;-52
2023/04/21 05:48:51;;;;;;;;;;;18.40;85.80;;;;;;5115507;28;19912;-51
2023/04/21 05:51:17;;;;;;;;;;;18.40;85.80;;;;;;5115517;28;19912;-52
2023/04/21 05:53:43;;;;;;;;;;;18.40;86.40;;;;;;5114935;27;19912;-54
2023/04/21 05:56:09;;;;;;;;;;;18.40;85.80;;;;;;5115089;28;19926;-53
2023/04/21 05:58:35;;;;;;;;;;;18.40;85.90;;;;;;5115005;28;19914;-51
2023/04/21 06:01:00;;;;;;;;;;;18.40;85.90;;;;;;5114738;28;20019;-53
2023/04/21 06:03:26;;;;;;;;;;;18.30;85.90;;;;;;5114987;28;19957;-52
2023/04/21 06:05:52;;;;;;;;;;;18.40;85.90;;;;;;5115458;28;19958;-53
2023/04/21 06:08:18;;;;;;;;;;;18.30;85.90;;;;;;5113581;28;19915;-52
2023/04/21 06:10:43;;;;;;;;;;;18.30;85.90;;;;;;5114963;28;19907;-53
2023/04/21 06:13:09;;;;;;;;;;;18.30;86.00;;;;;;5114859;28;19973;-53
2023/04/21 06:15:34;;;;;;;;;;;18.30;86.00;;;;;;5114541;28;20397;-52
2023/04/21 06:18:00;;;;;;;;;;;18.30;86.00;;;;;;5114667;28;19915;-54
2023/04/21 06:20:25;;;;;;;;;;;18.30;86.00;;;;;;5114708;28;19989;-54
2023/04/21 06:22:51;;;;;;;;;;;18.30;86.00;;;;;;5114526;28;19908;-52
2023/04/21 06:25:16;;;;;;;;;;;18.30;86.00;;;;;;5114678;28;19973;-53
2023/04/21 06:27:44;;;;;;;;;;;18.30;86.00;;;;;;5114390;28;20349;-52
2023/04/21 06:30:10;;;;;;;;;;;18.30;86.00;;;;;;5114771;28;20374;-54
2023/04/21 06:32:35;;;;;;;;;;;18.30;86.00;;;;;;5115010;28;19915;-51
2023/04/21 06:35:01;;;;;;;;;;;18.30;86.10;;;;;;5114096;28;20329;-50
2023/04/21 06:37:26;;;;;;;;;;;18.30;86.10;;;;;;5114268;28;19912;-53
2023/04/21 06:39:52;;;;;;;;;;;18.30;86.10;;;;;;5114357;28;19958;-53
2023/04/21 06:42:17;;;;;;;;;;;18.20;86.10;;;;;;5114007;28;20255;-52
2023/04/21 06:44:43;;;;;;;;;;;18.20;86.10;;;;;;5114588;28;19934;-50
2023/04/21 06:47:08;;;;;;;;;;;18.20;86.10;;;;;;5114111;28;19911;-51
2023/04/21 06:49:36;;;;;;;;;;;18.20;86.10;;;;;;5114442;28;19976;-54
2023/04/21 06:52:01;;;;;;;;;;;18.20;86.10;;;;;;5113049;28;19908;-53
2023/04/21 06:54:27;;;;;;;;;;;18.20;86.10;;;;;;5114011;28;20002;-55
2023/04/21 06:56:52;;;;;;;;;;;18.30;86.10;;;;;;5114027;28;19916;-53
2023/04/21 06:59:18;;;;;;;;;;;18.20;86.10;;;;;;5113941;28;19908;-52
2023/04/21 07:01:43;;;;;;;;;;;18.20;86.10;;;;;;5114643;28;19950;-50
2023/04/21 07:04:09;;;;;;;;;;;18.20;86.10;;;;;;5114135;28;20327;-50
2023/04/21 07:06:34;;;;;;;;;;;18.20;86.10;;;;;;5114106;28;19958;-50
2023/04/21 07:08:59;;;;;;;;;;;18.20;86.10;;;;;;5113579;28;19908;-55
2023/04/21 07:11:27;;;;;;;;;;;18.20;86.10;;;;;;5114249;28;19908;-52
2023/04/21 07:13:53;;;;;;;;;;;18.20;86.20;;;;;;5113501;28;19911;-50
2023/04/21 07:16:18;;;;;;;;;;;18.20;86.20;;;;;;5113702;28;20374;-53
2023/04/21 07:18:43;;;;;;;;;;;18.20;86.20;;;;;;5114131;28;19915;-52
2023/04/21 07:21:09;;;;;;;;;;;18.20;86.20;;;;;;5113753;28;19908;-52
2023/04/21 07:23:34;;;;;;;;;;;18.20;86.70;;;;;;5114107;28;19908;-52
2023/04/21 07:26:00;;;;;;;;;;;18.20;86.10;;;;;;5113683;28;19915;-49
2023/04/21 07:28:25;;;;;;;;;;;18.20;86.20;;;;;;5113018;28;19915;-53
2023/04/21 07:30:51;;;;;;;;;;;18.10;86.20;;;;;;5113947;28;20373;-53
2023/04/21 07:33:16;;;;;;;;;;;18.10;86.20;;;;;;5113962;28;19957;-52
2023/04/21 07:35:42;;;;;;;;;;;18.20;86.30;;;;;;5113608;28;19911;-53
2023/04/21 07:38:07;;;;;;;;;;;18.20;86.30;;;;;;5114105;28;20339;-55
2023/04/21 07:40:33;;;;;;;;;;;18.10;86.20;;;;;;5113780;28;19932;-54
2023/04/21 07:42:58;;;;;;;;;;;18.10;86.30;;;;;;5114103;28;19927;-55
2023/04/21 07:45:25;;;;;;;;;;;18.10;86.30;;;;;;5114146;28;19936;-52
2023/04/21 07:47:50;;;;;;;;;;;18.10;86.30;;;;;;5113568;28;19915;-53
2023/04/21 07:50:16;;;;;;;;;;;18.10;86.20;;;;;;5113432;28;19912;-53
2023/04/21 07:52:41;;;;;;;;;;;18.10;86.20;;;;;;5113590;28;19914;-54
2023/04/21 07:55:07;;;;;;;;;;;18.10;86.30;;;;;;5113895;28;19951;-54
2023/04/21 07:57:37;;;;;;;;;;;18.10;86.30;;;;;;5113079;28;19915;-52
2023/04/21 08:00:03;;;;;;;;;;;18.10;86.20;;;;;;5113787;28;19991;-53
2023/04/21 08:02:29;;;;;;;;;;;18.10;86.30;;;;;;5113790;28;19908;-54
2023/04/21 08:04:54;;;;;;;;;;;18.10;86.40;;;;;;5113806;28;20330;-51
2023/04/21 08:07:20;;;;;;;;;;;18.10;86.30;;;;;;5113499;28;19912;-52
2023/04/21 08:09:45;;;;;;;;;;;18.10;86.20;;;;;;5113480;28;19930;-53
2023/04/21 08:12:10;;;;;;;;;;;18.20;86.20;;;;;;5113703;28;20002;-53
2023/04/21 08:14:36;;;;;;;;;;;18.20;86.70;;;;;;5113672;28;19915;-54
2023/04/21 08:17:02;;;;;;;;;;;18.20;86.20;;;;;;5113463;28;19911;-51
2023/04/21 08:19:27;;;;;;;;;;;18.30;86.10;;;;;;5113414;28;20430;-52
2023/04/21 08:21:53;;;;;;;;;;;18.40;86.00;;;;;;5115235;28;20007;-54
2023/04/21 08:24:18;;;;;;;;;;;18.50;85.90;;;;;;5116800;28;20365;-52
2023/04/21 08:26:44;;;;;;;;;;;18.60;85.70;;;;;;5117079;27;19965;-54
2023/04/21 08:29:09;;;;;;;;;;;18.80;85.40;;;;;;5115731;28;19908;-54
2023/04/21 08:31:35;;;;;;;;;;;18.90;85.10;;;;;;5117178;28;19914;-54
2023/04/21 08:34:01;;;;;;;;;;;19.10;84.80;;;;;;5116996;27;20244;-51
2023/04/21 08:36:26;;;;;;;;;;;19.30;84.40;;;;;;5117070;28;20006;-54
2023/04/21 08:38:52;;;;;;;;;;;19.40;84.10;;;;;;5116864;28;19968;-51
2023/04/21 08:41:18;;;;;;;;;;;19.50;83.70;;;;;;5116687;28;19908;-55
2023/04/21 08:43:44;;;;;;;;;;;19.70;83.40;;;;;;5116854;28;19966;-52
2023/04/21 08:46:10;;;;;;;;;;;19.80;83.00;;;;;;5116599;28;19912;-53
2023/04/21 08:48:37;;;;;;;;;;;19.90;83.00;;;;;;5116815;28;19912;-54
2023/04/21 08:51:03;;;;;;;;;;;20.00;82.60;;;;;;5116464;28;19914;-55
2023/04/21 08:53:28;;;;;;;;;;;20.00;82.40;;;;;;5116734;28;19965;-53
2023/04/21 08:55:55;;;;;;;;;;;20.10;82.30;;;;;;5116316;28;19916;-52
2023/04/21 08:58:23;;;;;;;;;;;20.10;82.20;;;;;;5116604;28;19951;-51
2023/04/21 09:00:49;;;;;;;;;;;20.10;82.20;;;;;;5116465;28;20437;-55
2023/04/21 09:03:20;;;;;;;;;;;20.10;82.20;;;;;;5116296;28;19955;-54
2023/04/21 09:05:55;;;;;;;;;;;20.10;82.10;;;;;;5116455;28;19915;-53
2023/04/21 09:08:21;;;;;;;;;;;20.10;82.20;;;;;;5116024;28;19957;-54
2023/04/21 09:10:50;;;;;;;;;;;20.10;82.20;;;;;;5116739;28;19911;-51
2023/04/21 09:13:16;;;;;;;;;;;20.10;82.10;;;;;;5116168;28;19912;-53
2023/04/21 09:15:50;;;;;;;;;;;20.10;82.10;;;;;;5116046;28;20377;-55
2023/04/21 09:18:16;;;;;;;;;;;20.10;82.10;;;;;;5116104;28;20063;-53
2023/04/21 09:20:42;;;;;;;;;;;20.10;82.10;;;;;;5116408;28;20009;-55
2023/04/21 09:23:08;;;;;;;;;;;20.10;82.10;;;;;;5116143;28;20362;-53
2023/04/21 09:25:34;;;;;;;;;;;20.10;82.20;;;;;;5115782;28;19915;-50
2023/04/21 09:27:59;;;;;;;;;;;20.10;82.20;;;;;;5116106;28;19999;-52
2023/04/21 09:30:25;;;;;;;;;;;20.10;82.20;;;;;;5115998;28;19914;-51
2023/04/21 09:32:54;;;;;;;;;;;20.10;82.30;;;;;;5115114;28;19914;-54
2023/04/21 09:35:20;;;;;;;;;;;20.00;82.20;;;;;;5116164;28;19950;-52
2023/04/21 09:37:45;;;;;;;;;;;20.10;82.30;;;;;;5115460;28;19963;-54
2023/04/21 09:40:12;;;;;;;;;;;20.00;82.20;;;;;;5115746;28;20364;-49
2023/04/21 09:42:38;;;;;;;;;;;20.10;82.30;;;;;;5115201;28;20342;-52
2023/04/21 09:45:04;;;;;;;;;;;20.10;82.30;;;;;;5115796;28;19915;-53
2023/04/21 09:47:31;;;;;;;;;;;20.10;82.30;;;;;;5115451;28;19961;-52
2023/04/21 09:49:57;;;;;;;;;;;20.10;82.30;;;;;;5115798;28;19951;-52
2023/04/21 09:52:23;;;;;;;;;;;20.10;82.30;;;;;;5115401;28;19908;-54
2023/04/21 09:54:50;;;;;;;;;;;20.10;82.20;;;;;;5115337;28;19940;-55
2023/04/21 09:57:21;;;;;;;;;;;20.10;82.20;;;;;;5115347;28;19964;-54
2023/04/21 09:59:49;;;;;;;;;;;20.10;82.20;;;;;;5115096;28;19911;-53
2023/04/21 10:02:16;;;;;;;;;;;20.10;82.10;;;;;;5115379;28;19907;-52
2023/04/21 10:04:42;;;;;;;;;;;20.10;82.10;;;;;;5114883;28;20370;-53
2023/04/21 10:07:08;;;;;;;;;;;20.20;82.10;;;;;;5115098;28;19912;-54
2023/04/21 10:09:37;;;;;;;;;;;20.20;82.00;;;;;;5113637;28;19908;-52
2023/04/21 10:12:03;;;;;;;;;;;20.20;82.00;;;;;;5114709;28;19915;-52
2023/04/21 10:14:29;;;;;;;;;;;20.20;81.90;;;;;;5114965;28;19915;-52
2023/04/21 10:16:55;;;;;;;;;;;20.20;81.90;;;;;;5114701;28;20431;-52
2023/04/21 10:19:25;;;;;;;;;;;20.30;81.80;;;;;;5114715;28;19908;-53
2023/04/21 10:21:51;;;;;;;;;;;20.30;81.80;;;;;;5114984;28;19907;-52
2023/04/21 10:24:16;;;;;;;;;;;20.30;81.70;;;;;;5115015;28;19919;-54
2023/04/21 10:26:42;;;;;;;;;;;20.30;81.60;;;;;;5114752;28;20381;-53
2023/04/21 10:29:08;;;;;;;;;;;20.30;81.60;;;;;;5114591;28;20006;-51
2023/04/21 10:31:33;;;;;;;;;;;20.40;81.60;;;;;;5114776;27;19908;-52
2023/04/21 10:34:06;;;;;;;;;;;20.40;81.50;;;;;;5114631;28;20266;-54
2023/04/21 10:36:33;;;;;;;;;;;20.40;81.50;;;;;;5114636;28;20021;-54
2023/04/21 10:39:02;;;;;;;;;;;20.40;81.40;;;;;;5114725;28;19960;-55
2023/04/21 10:41:32;;;;;;;;;;;20.40;81.40;;;;;;5114650;28;19953;-54
2023/04/21 10:43:58;;;;;;;;;;;20.40;81.40;;;;;;5113911;28;19920;-50
2023/04/21 10:46:30;;;;;;;;;;;20.40;81.30;;;;;;5114487;28;20368;-54
2023/04/21 10:49:03;;;;;;;;;;;20.50;81.40;;;;;;5114252;28;19908;-50
2023/04/21 10:51:29;;;;;;;;;;;20.50;81.40;;;;;;5114622;28;19931;-55
2023/04/21 10:53:55;;;;;;;;;;;20.50;81.30;;;;;;5113902;28;19958;-50
2023/04/21 10:56:20;;;;;;;;;;;20.50;81.30;;;;;;5113868;28;19912;-54
2023/04/21 10:58:48;;;;;;;;;;;20.50;81.40;;;;;;5114427;28;20324;-53
2023/04/21 11:01:13;;;;;;;;;;;20.50;81.30;;;;;;5114048;28;19923;-53
2023/04/21 11:03:39;;;;;;;;;;;20.50;81.30;;;;;;5114576;28;19908;-52
2023/04/21 11:06:15;;;;;;;;;;;20.50;81.30;;;;;;5114283;28;19907;-54
2023/04/21 11:08:56;;;;;;;;;;;20.50;81.30;;;;;;5113947;28;19915;-53
2023/04/21 11:11:28;;;;;;;;;;;20.50;81.20;;;;;;5114230;28;19912;-50
2023/04/21 11:13:53;;;;;;;;;;;20.50;81.20;;;;;;5114282;28;19912;-54
2023/04/21 11:16:19;;;;;;;;;;;20.50;81.20;;;;;;5114065;28;19912;-53
2023/04/21 11:18:44;;;;;;;;;;;20.50;81.20;;;;;;5114201;28;19907;-48
2023/04/21 11:21:12;;;;;;;;;;;20.50;81.20;;;;;;5113828;28;19912;-51
2023/04/21 11:23:41;;;;;;;;;;;20.60;81.20;;;;;;5113813;28;19908;-53
2023/04/21 11:26:07;;;;;;;;;;;20.60;81.10;;;;;;5113800;28;19958;-52
2023/04/21 11:28:32;;;;;;;;;;;20.60;81.00;;;;;;5113402;28;19960;-52
2023/04/21 11:30:57;;;;;;;;;;;20.60;81.00;;;;;;5113835;28;19916;-51
2023/04/21 11:33:23;;;;;;;;;;;20.60;81.00;;;;;;5113638;28;19918;-50
2023/04/21 11:35:50;;;;;;;;;;;20.60;80.90;;;;;;5114108;28;19911;-52
2023/04/21 11:38:17;;;;;;;;;;;20.70;80.90;;;;;;5113502;28;19915;-52
2023/04/21 11:40:47;;;;;;;;;;;20.70;80.90;;;;;;5113983;28;19953;-52
2023/04/21 11:43:12;;;;;;;;;;;20.70;80.90;;;;;;5113572;28;19927;-51
2023/04/21 11:45:40;;;;;;;;;;;20.70;80.90;;;;;;5112897;28;19911;-51
2023/04/21 11:48:13;;;;;;;;;;;20.70;80.70;;;;;;5113828;28;19933;-52
2023/04/21 11:50:39;;;;;;;;;;;20.70;80.70;;;;;;5112312;28;20377;-51
2023/04/21 11:53:05;;;;;;;;;;;20.70;80.70;;;;;;5113653;28;19908;-50
2023/04/21 11:55:30;;;;;;;;;;;20.70;80.70;;;;;;5114640;28;20378;-52
2023/04/21 11:57:56;;;;;;;;;;;20.80;80.70;;;;;;5117935;28;19957;-52
2023/04/21 12:00:22;;;;;;;;;;;20.80;80.70;;;;;;5117689;27;19915;-54
2023/04/21 12:02:54;;;;;;;;;;;20.80;80.70;;;;;;5117248;28;20274;-52
2023/04/21 12:05:20;;;;;;;;;;;20.80;80.60;;;;;;5117249;28;19915;-52
2023/04/21 12:07:50;;;;;;;;;;;20.80;80.60;;;;;;5116313;28;19908;-49
2023/04/21 12:10:17;;;;;;;;;;;20.80;80.50;;;;;;5116855;28;20368;-52
2023/04/21 12:12:43;;;;;;;;;;;20.80;80.50;;;;;;5116938;27;19908;-52
2023/04/21 12:15:09;;;;;;;;;;;20.80;80.50;;;;;;5115850;28;20010;-52
2023/04/21 12:17:38;;;;;;;;;;;20.80;80.50;;;;;;5116026;28;19912;-51
2023/04/21 12:20:05;;;;;;;;;;;20.80;80.60;;;;;;5117023;28;19952;-52
2023/04/21 12:22:31;;;;;;;;;;;20.80;80.50;;;;;;5116893;28;19908;-52
2023/04/21 12:24:56;;;;;;;;;;;20.80;80.60;;;;;;5117265;28;19918;-54
2023/04/21 12:27:22;;;;;;;;;;;20.80;80.60;;;;;;5117072;28;19933;-55
2023/04/21 12:29:47;;;;;;;;;;;20.80;80.70;;;;;;5116844;28;19994;-53
2023/04/21 12:32:13;;;;;;;;;;;20.80;80.70;;;;;;5116943;28;19920;-53
2023/04/21 12:34:39;;;;;;;;;;;20.80;80.70;;;;;;5116689;28;20010;-52
2023/04/21 12:37:06;;;;;;;;;;;20.80;80.70;;;;;;5117133;28;19957;-54
2023/04/21 12:39:32;;;;;;;;;;;20.80;80.60;;;;;;5116997;28;19974;-55
2023/04/21 12:41:57;;;;;;;;;;;20.80;80.60;;;;;;5117384;28;20334;-51
2023/04/21 12:44:23;;;;;;;;;;;20.80;80.60;;;;;;5116755;28;19923;-50
2023/04/21 12:46:49;;;;;;;;;;;20.80;80.60;;;;;;5116613;28;20003;-54
2023/04/21 12:49:16;;;;;;;;;;;20.80;80.60;;;;;;5116416;28;19908;-55
2023/04/21 12:51:42;;;;;;;;;;;20.80;80.60;;;;;;5116631;28;19907;-54
2023/04/21 12:54:07;;;;;;;;;;;20.80;80.60;;;;;;5116637;28;19912;-54
2023/04/21 12:56:33;;;;;;;;;;;20.80;80.60;;;;;;5116577;28;20270;-52
2023/04/21 12:58:58;;;;;;;;;;;20.70;80.60;;;;;;5116634;28;19908;-53
2023/04/21 13:01:24;;;;;;;;;;;20.70;80.70;;;;;;5116329;28;19998;-49
2023/04/21 13:03:49;;;;;;;;;;;20.70;80.70;;;;;;5116219;28;20003;-52
2023/04/21 13:06:15;;;;;;;;;;;20.70;80.80;;;;;;5116245;28;19914;-53
2023/04/21 13:08:41;;;;;;;;;;;20.70;80.90;;;;;;5115622;28;19930;-50
2023/04/21 13:11:06;;;;;;;;;;;20.60;80.80;;;;;;5116240;28;20372;-52
2023/04/21 13:13:32;;;;;;;;;;;20.60;80.90;;;;;;5116210;28;20011;-54
2023/04/21 13:15:57;;;;;;;;;;;20.60;81.00;;;;;;5116318;28;20294;-54
2023/04/21 13:18:23;;;;;;;;;;;20.60;81.00;;;;;;5116242;28;19908;-55
2023/04/21 13:20:48;;;;;;;;;;;20.60;81.00;;;;;;5115850;28;19907;-54
2023/04/21 13:23:14;;;;;;;;;;;20.60;81.00;;;;;;5116113;28;19908;-53
2023/04/21 13:25:40;;;;;;;;;;;20.60;81.10;;;;;;5115828;28;19958;-53
2023/04/21 13:28:08;;;;;;;;;;;20.60;81.10;;;;;;5115643;28;20379;-54
2023/04/21 13:30:35;;;;;;;;;;;20.60;81.10;;;;;;5116043;28;19908;-54
2023/04/21 13:33:01;;;;;;;;;;;20.60;81.00;;;;;;5115836;28;19907;-53
2023/04/21 13:35:26;;;;;;;;;;;20.60;81.10;;;;;;5115667;28;20396;-48
2023/04/21 13:37:53;;;;;;;;;;;20.60;81.00;;;;;;5115684;28;19937;-52
2023/04/21 13:40:18;;;;;;;;;;;20.60;81.00;;;;;;5115473;28;19915;-52
2023/04/21 13:42:44;;;;;;;;;;;20.60;81.00;;;;;;5115452;28;20019;-52
2023/04/21 13:45:10;;;;;;;;;;;20.60;80.90;;;;;;5115188;28;19911;-52
2023/04/21 13:47:36;;;;;;;;;;;20.60;80.90;;;;;;5115495;28;19953;-48
2023/04/21 13:50:01;;;;;;;;;;;20.70;80.90;;;;;;5115472;28;19910;-52
2023/04/21 13:52:27;;;;;;;;;;;20.70;80.80;;;;;;5115639;28;20256;-52
2023/04/21 13:54:52;;;;;;;;;;;20.70;80.70;;;;;;5115070;28;19919;-54
2023/04/21 13:57:18;;;;;;;;;;;20.80;80.70;;;;;;5115296;28;20270;-53
2023/04/21 13:59:44;;;;;;;;;;;20.80;80.60;;;;;;5115392;28;19923;-52
2023/04/21 14:02:10;;;;;;;;;;;20.80;80.60;;;;;;5115140;28;19995;-53
2023/04/21 14:04:35;;;;;;;;;;;20.80;80.50;;;;;;5114707;28;19915;-53
2023/04/21 14:07:01;;;;;;;;;;;20.90;80.50;;;;;;5114914;28;20280;-52
2023/04/21 14:09:27;;;;;;;;;;;20.90;80.40;;;;;;5114650;28;19912;-52